createdAt,value
2018-12-19T00:02:15.588Z,98848.20
2018-12-19T00:04:44.104Z,98841.70
2018-12-19T00:07:12.650Z,98838.30
2018-12-19T00:09:41.163Z,98839.69
2018-12-19T00:12:09.516Z,98842.09
2018-12-19T00:14:38.724Z,98834.89
2018-12-19T00:17:07.096Z,98836.51
2018-12-19T00:19:35.406Z,98841.94
2018-12-19T00:22:03.856Z,98838.77
2018-12-19T00:24:32.165Z,98837.13
2018-12-19T00:27:00.591Z,98831.57
2018-12-19T00:29:28.857Z,98825.39
2018-12-19T00:31:57.192Z,98815.25
2018-12-19T00:34:25.473Z,98819.03
2018-12-19T00:36:53.773Z,98813.24
2018-12-19T00:39:22.069Z,98814.67
2018-12-19T00:41:50.460Z,98802.13
2018-12-19T00:44:18.815Z,98806.94
2018-12-19T00:46:47.230Z,98780.62
2018-12-19T00:49:15.582Z,98774.59
2018-12-19T00:51:43.995Z,98776.03
2018-12-19T00:54:12.533Z,98780.41
2018-12-19T00:56:40.850Z,98780.36
2018-12-19T00:59:09.202Z,98774.16
2018-12-19T01:01:37.592Z,98774.23
2018-12-19T01:04:05.882Z,98770.41
2018-12-19T01:06:34.299Z,98775.05
2018-12-19T01:09:04.009Z,98773.23
2018-12-19T01:11:32.478Z,98774.23
2018-12-19T01:14:00.769Z,98776.34
2018-12-19T01:16:29.191Z,98775.62
2018-12-19T01:18:57.483Z,98774.18
2018-12-19T01:21:25.816Z,98765.13
2018-12-19T01:23:54.179Z,98762.44
2018-12-19T01:26:22.590Z,98774.80
2018-12-19T01:28:50.933Z,98769.45
2018-12-19T01:31:19.355Z,98756.28
2018-12-19T01:33:47.705Z,98750.19
2018-12-19T01:36:16.229Z,98744.28
2018-12-19T01:38:44.544Z,98753.15
2018-12-19T01:41:12.853Z,98743.41
2018-12-19T01:43:41.201Z,98746.03
2018-12-19T01:46:09.500Z,98738.44
2018-12-19T01:48:38.056Z,98739.38
2018-12-19T01:51:06.591Z,98731.66
2018-12-19T01:53:35.016Z,98732.62
2018-12-19T01:56:03.852Z,98730.13
2018-12-19T01:58:32.125Z,98739.05
2018-12-19T02:01:00.425Z,98729.23
2018-12-19T02:03:28.732Z,98727.16
2018-12-19T02:05:57.139Z,98719.02
2018-12-19T02:08:25.492Z,98712.34
2018-12-19T02:10:53.797Z,98705.59
2018-12-19T02:13:22.151Z,98695.09
2018-12-19T02:15:50.542Z,98699.10
2018-12-19T02:18:18.893Z,98699.78
2018-12-19T02:20:47.309Z,98698.13
2018-12-19T02:23:15.585Z,98711.42
2018-12-19T02:25:43.948Z,98710.80
2018-12-19T02:28:12.221Z,98705.55
2018-12-19T02:30:40.596Z,98702.81
2018-12-19T02:33:08.890Z,98702.43
2018-12-19T02:35:37.181Z,98700.69
2018-12-19T02:38:05.497Z,98697.94
2018-12-19T02:40:33.836Z,98684.44
2018-12-19T02:43:02.094Z,98682.37
2018-12-19T02:45:30.444Z,98684.03
2018-12-19T02:47:58.804Z,98686.84
2018-12-19T02:50:27.223Z,98688.78
2018-12-19T02:52:55.589Z,98689.66
2018-12-19T02:55:23.891Z,98683.13
2018-12-19T02:57:52.162Z,98685.91
2018-12-19T03:00:20.628Z,98670.22
2018-12-19T03:02:49.009Z,98667.62
2018-12-19T03:05:17.497Z,98656.42
2018-12-19T03:07:45.838Z,98653.23
2018-12-19T03:10:14.228Z,98653.70
2018-12-19T03:12:42.580Z,98664.60
2018-12-19T03:15:11.074Z,98660.48
2018-12-19T03:17:39.479Z,98659.44
2018-12-19T03:20:08.030Z,98658.70
2018-12-19T03:22:36.436Z,98655.70
2018-12-19T03:25:05.098Z,98651.98
2018-12-19T03:27:33.431Z,98653.83
2018-12-19T03:30:01.701Z,98659.23
2018-12-19T03:32:30.036Z,98652.22
2018-12-19T03:34:58.392Z,98652.57
2018-12-19T03:37:26.783Z,98654.67
2018-12-19T03:39:55.139Z,98653.44
2018-12-19T03:42:27.001Z,98638.38
2018-12-19T03:44:56.733Z,98640.55
2018-12-19T03:47:26.887Z,98637.53
2018-12-19T03:49:55.508Z,98616.99
2018-12-19T03:52:23.824Z,98624.84
2018-12-19T03:54:52.273Z,98626.66
2018-12-19T03:57:20.788Z,98625.34
2018-12-19T03:59:49.132Z,98621.89
2018-12-19T04:02:17.514Z,98616.77
2018-12-19T04:04:45.878Z,98610.98
2018-12-19T04:07:14.175Z,98601.92
2018-12-19T04:09:42.545Z,98610.19
2018-12-19T04:12:10.934Z,98606.16
2018-12-19T04:14:39.226Z,98616.59
2018-12-19T04:17:07.578Z,98616.23
2018-12-19T04:19:35.936Z,98621.63
2018-12-19T04:22:04.246Z,98631.56
2018-12-19T04:24:32.646Z,98636.73
2018-12-19T04:27:00.988Z,98632.18
2018-12-19T04:29:29.476Z,98629.75
2018-12-19T04:31:57.834Z,98632.59
2018-12-19T04:34:26.250Z,98624.14
2018-12-19T04:36:54.575Z,98629.40
2018-12-19T04:39:23.008Z,98631.16
2018-12-19T04:41:51.347Z,98631.45
2018-12-19T04:44:19.744Z,98612.06
2018-12-19T04:46:48.094Z,98618.55
2018-12-19T04:49:16.372Z,98627.99
2018-12-19T04:51:44.910Z,98622.60
2018-12-19T04:54:13.256Z,98623.94
2018-12-19T04:56:41.631Z,98629.65
2018-12-19T04:59:09.976Z,98634.44
2018-12-19T05:01:38.417Z,98630.85
2018-12-19T05:04:06.708Z,98630.38
2018-12-19T05:06:35.166Z,98631.72
2018-12-19T05:09:05.468Z,98632.58
2018-12-19T05:11:34.203Z,98633.03
2018-12-19T05:14:02.496Z,98634.35
2018-12-19T05:16:30.949Z,98640.67
2018-12-19T05:18:59.517Z,98628.73
2018-12-19T05:21:27.902Z,98628.52
2018-12-19T05:23:56.332Z,98627.05
2018-12-19T05:26:24.774Z,98632.00
2018-12-19T05:28:53.181Z,98631.36
2018-12-19T05:31:21.588Z,98623.49
2018-12-19T05:33:49.917Z,98619.03
2018-12-19T05:36:18.464Z,98614.16
2018-12-19T05:38:46.989Z,98618.66
2018-12-19T05:41:15.461Z,98615.84
2018-12-19T05:43:43.840Z,98609.80
2018-12-19T05:46:12.160Z,98607.91
2018-12-19T05:48:40.434Z,98611.86
2018-12-19T05:51:08.797Z,98621.27
2018-12-19T05:53:37.148Z,98616.34
2018-12-19T05:56:05.546Z,98622.36
2018-12-19T05:58:33.885Z,98624.28
2018-12-19T06:01:02.415Z,98621.83
2018-12-19T06:03:30.760Z,98620.30
2018-12-19T06:05:59.235Z,98618.60
2018-12-19T06:08:27.630Z,98616.90
2018-12-19T06:10:55.992Z,98628.83
2018-12-19T06:13:24.293Z,98636.50
2018-12-19T06:15:52.646Z,98629.13
2018-12-19T06:18:20.948Z,98623.95
2018-12-19T06:20:49.244Z,98618.97
2018-12-19T06:23:17.757Z,98612.95
2018-12-19T06:25:46.314Z,98611.83
2018-12-19T06:28:14.680Z,98619.11
2018-12-19T06:30:43.162Z,98625.36
2018-12-19T06:33:11.503Z,98627.25
2018-12-19T06:35:40.191Z,98623.91
2018-12-19T06:38:08.588Z,98614.22
2018-12-19T06:40:36.959Z,98622.12
2018-12-19T06:43:05.432Z,98620.33
2018-12-19T06:45:34.025Z,98616.86
2018-12-19T06:48:02.740Z,98626.54
2018-12-19T06:50:31.487Z,98616.80
2018-12-19T06:53:00.758Z,98620.15
2018-12-19T06:55:29.540Z,98617.41
2018-12-19T06:57:57.863Z,98622.40
2018-12-19T07:00:26.377Z,98621.27
2018-12-19T07:02:54.743Z,98628.23
2018-12-19T07:05:23.075Z,98628.23
2018-12-19T07:08:06.565Z,98629.08
2018-12-19T07:10:39.070Z,98630.48
2018-12-19T07:13:05.566Z,98637.25
2018-12-19T07:15:34.057Z,98630.77
2018-12-19T07:18:02.581Z,98630.20
2018-12-19T07:20:31.120Z,98633.02
2018-12-19T07:22:59.729Z,98623.53
2018-12-19T07:25:28.195Z,98628.08
2018-12-19T07:27:56.673Z,98628.33
2018-12-19T07:30:25.040Z,98631.66
2018-12-19T07:32:53.465Z,98636.41
2018-12-19T07:35:21.763Z,98636.13
2018-12-19T07:37:50.701Z,98642.81
2018-12-19T07:40:19.046Z,98640.49
2018-12-19T07:42:47.427Z,98638.20
2018-12-19T07:45:15.701Z,98637.63
2018-12-19T07:47:44.068Z,98632.78
2018-12-19T07:50:12.451Z,98630.52
2018-12-19T07:52:41.352Z,98632.47
2018-12-19T07:55:09.674Z,98644.19
2018-12-19T07:57:38.139Z,98645.20
2018-12-19T08:00:06.716Z,98640.87
2018-12-19T08:02:35.108Z,98642.00
2018-12-19T08:05:03.572Z,98642.38
2018-12-19T08:07:32.140Z,98635.51
2018-12-19T08:10:00.695Z,98639.11
2018-12-19T08:12:29.201Z,98630.17
2018-12-19T08:15:01.633Z,98627.33
2018-12-19T08:17:30.044Z,98626.10
2018-12-19T08:19:58.333Z,98631.66
2018-12-19T08:22:26.696Z,98637.02
2018-12-19T08:24:54.964Z,98635.60
2018-12-19T08:27:23.339Z,98639.17
2018-12-19T08:29:51.717Z,98636.36
2018-12-19T08:32:20.037Z,98633.62
2018-12-19T08:34:48.482Z,98630.43
2018-12-19T08:37:17.098Z,98625.82
2018-12-19T08:39:45.426Z,98629.33
2018-12-19T08:42:13.816Z,98618.52
2018-12-19T08:44:42.165Z,98614.86
2018-12-19T08:47:10.494Z,98612.31
2018-12-19T08:49:38.861Z,98624.75
2018-12-19T08:52:07.245Z,98626.81
2018-12-19T08:54:35.736Z,98613.81
2018-12-19T08:57:04.159Z,98620.13
2018-12-19T08:59:32.576Z,98629.92
2018-12-19T09:02:00.909Z,98627.08
2018-12-19T09:04:29.296Z,98627.76
2018-12-19T09:06:57.685Z,98625.77
2018-12-19T09:09:26.238Z,98625.20
2018-12-19T09:11:54.536Z,98622.55
2018-12-19T09:14:22.845Z,98634.99
2018-12-19T09:16:51.151Z,98631.69
2018-12-19T09:19:19.447Z,98635.91
2018-12-19T09:21:47.957Z,98640.41
2018-12-19T09:24:16.302Z,98633.73
2018-12-19T09:26:44.648Z,98630.05
2018-12-19T09:29:13.068Z,98631.46
2018-12-19T09:31:46.107Z,98636.36
2018-12-19T09:34:15.257Z,98641.34
2018-12-19T09:36:43.653Z,98638.41
2018-12-19T09:39:12.077Z,98633.53
2018-12-19T09:41:40.454Z,98637.46
2018-12-19T09:44:08.885Z,98629.92
2018-12-19T09:46:37.351Z,98634.55
2018-12-19T09:49:12.245Z,98633.88
2018-12-19T09:51:35.994Z,98617.67
2018-12-19T09:54:04.478Z,98618.89
2018-12-19T09:56:32.784Z,98629.68
2018-12-19T09:59:01.093Z,98620.87
2018-12-19T10:01:29.548Z,98628.17
2018-12-19T10:03:58.787Z,98633.54
2018-12-19T10:06:27.977Z,98629.84
2018-12-19T10:08:56.446Z,98628.31
2018-12-19T10:11:24.875Z,98624.25
2018-12-19T10:13:53.295Z,98627.27
2018-12-19T10:16:21.640Z,98626.66
2018-12-19T10:18:49.952Z,98634.00
2018-12-19T10:21:18.437Z,98635.44
2018-12-19T10:23:46.789Z,98621.75
2018-12-19T10:26:15.327Z,98622.23
2018-12-19T10:28:43.649Z,98610.53
2018-12-19T10:31:11.975Z,98624.69
2018-12-19T10:33:40.483Z,98620.25
2018-12-19T10:36:08.990Z,98615.39
2018-12-19T10:38:37.293Z,98611.58
2018-12-19T10:41:05.627Z,98612.38
2018-12-19T10:43:34.419Z,98614.48
2018-12-19T10:46:02.856Z,98616.28
2018-12-19T10:48:31.211Z,98610.41
2018-12-19T10:50:59.540Z,98610.23
2018-12-19T10:53:27.864Z,98604.37
2018-12-19T10:55:56.217Z,98599.85
2018-12-19T10:58:24.581Z,98599.16
2018-12-19T11:01:00.394Z,98595.96
2018-12-19T11:03:28.756Z,98590.83
2018-12-19T11:05:57.211Z,98588.19
2018-12-19T11:08:25.715Z,98593.10
2018-12-19T11:10:54.168Z,98601.14
2018-12-19T11:13:22.548Z,98596.11
2018-12-19T11:15:50.926Z,98602.80
2018-12-19T11:18:19.327Z,98602.28
2018-12-19T11:20:47.664Z,98608.63
2018-12-19T11:23:15.971Z,98607.09
2018-12-19T11:25:44.298Z,98606.39
2018-12-19T11:28:12.692Z,98597.06
2018-12-19T11:30:41.080Z,98595.64
2018-12-19T11:33:09.481Z,98589.77
2018-12-19T11:35:37.839Z,98594.20
2018-12-19T11:38:06.251Z,98598.46
2018-12-19T11:40:34.815Z,98608.20
2018-12-19T11:43:03.156Z,98607.46
2018-12-19T11:45:31.476Z,98603.12
2018-12-19T11:47:59.825Z,98592.07
2018-12-19T11:50:28.149Z,98599.37
2018-12-19T11:52:58.258Z,98598.56
2018-12-19T11:55:26.695Z,98589.08
2018-12-19T11:57:55.012Z,98585.23
2018-12-19T12:00:23.350Z,98585.96
2018-12-19T12:02:51.755Z,98580.14
2018-12-19T12:05:20.061Z,98565.48
2018-12-19T12:07:48.397Z,98572.28
2018-12-19T12:10:16.760Z,98571.08
2018-12-19T12:12:45.170Z,98568.91
2018-12-19T12:15:13.754Z,98568.37
2018-12-19T12:17:42.101Z,98557.09
2018-12-19T12:20:10.453Z,98557.59
2018-12-19T12:22:41.198Z,98559.28
2018-12-19T12:25:09.735Z,98553.56
2018-12-19T12:27:38.257Z,98561.88
2018-12-19T12:30:07.373Z,98556.34
2018-12-19T12:32:35.854Z,98553.09
2018-12-19T12:35:05.923Z,98557.31
2018-12-19T12:37:36.752Z,98560.11
2018-12-19T12:40:05.886Z,98562.39
2018-12-19T12:42:35.524Z,98560.27
2018-12-19T12:45:08.837Z,98554.25
2018-12-19T12:47:38.571Z,98558.90
2018-12-19T12:50:07.593Z,98551.33
2018-12-19T12:52:37.189Z,98556.14
2018-12-19T12:55:06.842Z,98552.13
2018-12-19T12:57:36.227Z,98554.05
2018-12-19T13:00:06.956Z,98554.05
2018-12-19T13:02:36.479Z,98547.68
2018-12-19T13:05:06.718Z,98557.96
2018-12-19T13:07:36.058Z,98546.53
2018-12-19T13:10:05.578Z,98544.57
2018-12-19T13:12:33.863Z,98528.95
2018-12-19T13:15:02.268Z,98540.35
2018-12-19T13:17:30.580Z,98533.38
2018-12-19T13:19:59.003Z,98545.53
2018-12-19T13:22:27.440Z,98540.35
2018-12-19T13:24:55.775Z,98547.44
2018-12-19T13:27:24.111Z,98548.12
2018-12-19T13:29:52.457Z,98543.48
2018-12-19T13:32:20.876Z,98549.97
2018-12-19T13:34:49.211Z,98543.25
2018-12-19T13:37:17.998Z,98545.53
2018-12-19T13:39:46.493Z,98546.14
2018-12-19T13:42:15.019Z,98543.66
2018-12-19T13:44:43.367Z,98533.84
2018-12-19T13:47:11.859Z,98534.72
2018-12-19T13:49:40.372Z,98531.80
2018-12-19T13:52:08.804Z,98527.97
2018-12-19T13:54:37.418Z,98531.34
2018-12-19T13:57:05.841Z,98538.65
2018-12-19T13:59:34.284Z,98538.00
2018-12-19T14:02:03.116Z,98530.55
2018-12-19T14:04:32.048Z,98528.27
2018-12-19T14:07:01.067Z,98524.64
2018-12-19T14:09:29.406Z,98531.37
2018-12-19T14:11:57.745Z,98527.11
2018-12-19T14:14:26.165Z,98532.28
2018-12-19T14:16:54.481Z,98532.77
2018-12-19T14:19:22.816Z,98526.52
2018-12-19T14:21:51.117Z,98540.45
2018-12-19T14:24:19.566Z,98537.16
2018-12-19T14:26:47.937Z,98535.27
2018-12-19T14:29:16.276Z,98527.86
2018-12-19T14:31:44.582Z,98536.25
2018-12-19T14:34:12.905Z,98542.93
2018-12-19T14:36:41.209Z,98544.45
2018-12-19T14:39:09.554Z,98537.09
2018-12-19T14:41:37.916Z,98543.02
2018-12-19T14:44:06.453Z,98544.99
2018-12-19T14:46:35.011Z,98537.00
2018-12-19T14:49:03.643Z,98543.53
2018-12-19T14:51:32.307Z,98540.49
2018-12-19T14:54:00.676Z,98542.41
2018-12-19T14:56:31.745Z,98536.33
2018-12-19T14:59:00.096Z,98541.67
2018-12-19T15:01:30.682Z,98540.91
2018-12-19T15:04:00.787Z,98540.17
2018-12-19T15:06:29.882Z,98537.90
2018-12-19T15:08:59.054Z,98537.64
2018-12-19T15:11:27.432Z,98529.46
2018-12-19T15:13:55.872Z,98529.55
2018-12-19T15:16:24.764Z,98537.17
2018-12-19T15:18:53.252Z,98545.77
2018-12-19T15:21:21.769Z,98541.69
2018-12-19T15:23:50.809Z,98533.14
2018-12-19T15:26:19.745Z,98525.99
2018-12-19T15:28:48.853Z,98534.47
2018-12-19T15:31:18.411Z,98536.20
2018-12-19T15:33:46.863Z,98541.38
2018-12-19T15:36:15.505Z,98539.91
2018-12-19T15:38:44.057Z,98546.92
2018-12-19T15:41:13.264Z,98549.64
2018-12-19T15:43:42.986Z,98549.53
2018-12-19T15:46:12.970Z,98554.30
2018-12-19T15:48:41.791Z,98555.13
2018-12-19T15:51:10.556Z,98558.19
2018-12-19T15:53:39.626Z,98566.97
2018-12-19T15:56:08.444Z,98564.21
2018-12-19T15:58:36.862Z,98561.79
2018-12-19T16:01:05.464Z,98557.22
2018-12-19T16:03:34.059Z,98561.91
2018-12-19T16:06:03.081Z,98556.25
2018-12-19T16:08:31.970Z,98556.22
2018-12-19T16:11:00.735Z,98552.97
2018-12-19T16:13:29.551Z,98554.48
2018-12-19T16:15:58.896Z,98551.69
2018-12-19T16:18:27.574Z,98559.59
2018-12-19T16:20:56.154Z,98555.98
2018-12-19T16:23:24.697Z,98548.85
2018-12-19T16:25:53.398Z,98553.19
2018-12-19T16:28:22.172Z,98558.09
2018-12-19T16:30:50.880Z,98556.36
2018-12-19T16:33:19.433Z,98560.67
2018-12-19T16:35:48.154Z,98557.29
2018-12-19T16:38:16.659Z,98563.06
2018-12-19T16:40:45.172Z,98564.98
2018-12-19T16:43:30.485Z,98571.61
2018-12-19T16:45:58.898Z,98584.70
2018-12-19T16:48:27.215Z,98582.44
2018-12-19T16:50:55.531Z,98590.30
2018-12-19T16:53:23.838Z,98590.42
2018-12-19T16:55:52.177Z,98587.77
2018-12-19T16:58:20.569Z,98583.13
2018-12-19T17:00:48.906Z,98586.77
2018-12-19T17:03:17.426Z,98583.92
2018-12-19T17:05:45.835Z,98581.27
2018-12-19T17:08:14.171Z,98583.85
2018-12-19T17:10:42.580Z,98579.12
2018-12-19T17:13:10.950Z,98575.72
2018-12-19T17:15:39.272Z,98574.84
2018-12-19T17:18:07.837Z,98571.84
2018-12-19T17:20:36.294Z,98569.89
2018-12-19T17:23:04.621Z,98563.38
2018-12-19T17:25:33.092Z,98560.75
2018-12-19T17:28:01.395Z,98554.06
2018-12-19T17:30:29.684Z,98551.42
2018-12-19T17:32:58.069Z,98548.09
2018-12-19T17:35:26.355Z,98553.55
2018-12-19T17:37:54.748Z,98556.41
2018-12-19T17:40:23.155Z,98559.05
2018-12-19T17:42:51.568Z,98562.92
2018-12-19T17:45:19.936Z,98567.99
2018-12-19T17:47:48.317Z,98569.52
2018-12-19T17:50:17.784Z,98577.05
2018-12-19T17:52:46.173Z,98574.01
2018-12-19T17:55:14.545Z,98576.63
2018-12-19T17:57:42.977Z,98572.80
2018-12-19T18:00:12.496Z,98575.33
2018-12-19T18:02:40.976Z,98578.39
2018-12-19T18:05:09.304Z,98571.38
2018-12-19T18:07:37.695Z,98575.69
2018-12-19T18:10:06.490Z,98571.94
2018-12-19T18:12:34.981Z,98572.09
2018-12-19T18:15:03.443Z,98568.87
2018-12-19T18:17:31.819Z,98571.14
2018-12-19T18:20:00.193Z,98563.28
2018-12-19T18:22:28.594Z,98564.17
2018-12-19T18:24:56.957Z,98562.64
2018-12-19T18:27:25.330Z,98556.25
2018-12-19T18:29:53.710Z,98552.41
2018-12-19T18:32:22.053Z,98558.05
2018-12-19T18:34:50.571Z,98555.63
2018-12-19T18:37:19.058Z,98550.45
2018-12-19T18:39:47.349Z,98547.44
2018-12-19T18:42:15.705Z,98542.74
2018-12-19T18:44:44.008Z,98551.15
2018-12-19T18:47:12.424Z,98552.31
2018-12-19T18:49:40.832Z,98551.30
2018-12-19T18:52:09.183Z,98556.58
2018-12-19T18:54:37.586Z,98545.56
2018-12-19T18:57:06.162Z,98547.56
2018-12-19T18:59:34.497Z,98551.78
2018-12-19T19:02:02.972Z,98550.47
2018-12-19T19:04:33.806Z,98549.45
2018-12-19T19:07:02.227Z,98547.03
2018-12-19T19:09:30.934Z,98550.14
2018-12-19T19:11:59.302Z,98548.86
2018-12-19T19:14:27.669Z,98544.60
2018-12-19T19:16:56.048Z,98553.77
2018-12-19T19:19:24.667Z,98552.72
2018-12-19T19:21:53.008Z,98553.26
2018-12-19T19:24:21.409Z,98552.14
2018-12-19T19:26:49.734Z,98556.30
2018-12-19T19:29:18.409Z,98556.94
2018-12-19T19:31:47.016Z,98553.73
2018-12-19T19:34:15.763Z,98556.59
2018-12-19T19:36:44.452Z,98554.13
2018-12-19T19:39:12.900Z,98546.42
2018-12-19T19:41:41.643Z,98538.98
2018-12-19T19:44:10.408Z,98544.84
2018-12-19T19:46:38.710Z,98544.39
2018-12-19T19:49:07.302Z,98554.52
2018-12-19T19:51:36.738Z,98556.02
2018-12-19T19:54:05.096Z,98552.92
2018-12-19T19:56:33.467Z,98555.84
2018-12-19T19:59:02.062Z,98551.77
2018-12-19T20:01:30.555Z,98551.83
2018-12-19T20:03:58.927Z,98547.50
2018-12-19T20:06:27.357Z,98552.77
2018-12-19T20:08:57.006Z,98557.23
2018-12-19T20:11:25.436Z,98558.36
2018-12-19T20:13:55.431Z,98561.98
2018-12-19T20:16:23.760Z,98550.92
2018-12-19T20:18:52.273Z,98552.29
2018-12-19T20:21:20.616Z,98550.95
2018-12-19T20:23:49.117Z,98554.61
2018-12-19T20:26:17.453Z,98552.27
2018-12-19T20:28:46.257Z,98545.66
2018-12-19T20:31:14.914Z,98547.20
2018-12-19T20:33:43.328Z,98548.31
2018-12-19T20:36:11.911Z,98551.52
2018-12-19T20:38:40.399Z,98554.14
2018-12-19T20:41:08.773Z,98556.88
2018-12-19T20:43:40.124Z,98556.23
2018-12-19T20:46:07.756Z,98558.22
2018-12-19T20:48:36.161Z,98554.47
2018-12-19T20:51:05.091Z,98551.71
2018-12-19T20:53:33.582Z,98551.81
2018-12-19T20:56:03.857Z,98544.58
2018-12-19T20:58:32.376Z,98534.70
2018-12-19T21:01:00.856Z,98534.32
2018-12-19T21:03:29.419Z,98538.73
2018-12-19T21:05:57.998Z,98541.83
2018-12-19T21:08:26.358Z,98545.61
2018-12-19T21:10:54.712Z,98549.08
2018-12-19T21:13:23.211Z,98552.65
2018-12-19T21:15:52.667Z,98551.91
2018-12-19T21:18:26.500Z,98556.97
2018-12-19T21:20:55.125Z,98552.77
2018-12-19T21:23:23.448Z,98553.49
2018-12-19T21:25:51.840Z,98551.36
2018-12-19T21:28:20.435Z,98552.67
2018-12-19T21:30:48.890Z,98552.86
2018-12-19T21:33:17.447Z,98552.36
2018-12-19T21:35:46.716Z,98552.84
2018-12-19T21:38:15.137Z,98560.19
2018-12-19T21:40:43.932Z,98558.27
2018-12-19T21:43:12.458Z,98559.30
2018-12-19T21:45:40.921Z,98557.14
2018-12-19T21:48:09.252Z,98554.58
2018-12-19T21:50:37.994Z,98549.48
2018-12-19T21:53:06.424Z,98559.64
2018-12-19T21:55:34.812Z,98556.54
2018-12-19T21:58:03.188Z,98562.39
2018-12-19T22:00:37.662Z,98553.26
2018-12-19T22:03:07.286Z,98557.14
2018-12-19T22:05:37.899Z,98558.65
2018-12-19T22:08:06.883Z,98565.27
2018-12-19T22:10:35.625Z,98566.56
2018-12-19T22:13:04.426Z,98564.65
2018-12-19T22:15:33.088Z,98571.44
2018-12-19T22:18:07.043Z,98567.41
2018-12-19T22:20:35.879Z,98571.81
2018-12-19T22:23:05.076Z,98571.08
2018-12-19T22:25:33.856Z,98564.30
2018-12-19T22:28:02.515Z,98556.87
2018-12-19T22:30:31.723Z,98560.45
2018-12-19T22:33:00.310Z,98552.41
2018-12-19T22:35:28.815Z,98551.81
2018-12-19T22:37:57.174Z,98548.94
2018-12-19T22:40:25.794Z,98540.79
2018-12-19T22:42:54.183Z,98532.95
2018-12-19T22:45:22.540Z,98538.42
2018-12-19T22:47:50.906Z,98544.20
2018-12-19T22:50:19.428Z,98543.13
2018-12-19T22:52:47.757Z,98530.78
2018-12-19T22:55:16.160Z,98536.36
2018-12-19T22:57:44.806Z,98531.86
2018-12-19T23:00:19.828Z,98534.77
2018-12-19T23:02:53.437Z,98531.49
2018-12-19T23:05:27.297Z,98535.21
2018-12-19T23:07:55.696Z,98534.09
2018-12-19T23:10:24.168Z,98531.36
2018-12-19T23:12:52.517Z,98533.89
2018-12-19T23:15:21.538Z,98529.97
2018-12-19T23:17:50.175Z,98532.30
2018-12-19T23:20:18.813Z,98528.61
2018-12-19T23:22:47.162Z,98534.42
2018-12-19T23:25:15.484Z,98524.82
2018-12-19T23:27:43.819Z,98518.01
2018-12-19T23:30:12.344Z,98520.55
2018-12-19T23:32:40.658Z,98523.56
2018-12-19T23:35:09.171Z,98516.97
2018-12-19T23:37:37.781Z,98511.58
2018-12-19T23:40:06.588Z,98510.57
2018-12-19T23:42:35.039Z,98507.45
2018-12-19T23:45:03.542Z,98507.78
2018-12-19T23:47:32.033Z,98504.20
2018-12-19T23:50:00.477Z,98498.61
2018-12-19T23:52:28.905Z,98505.24
2018-12-19T23:54:57.266Z,98505.66
2018-12-19T23:57:25.585Z,98503.94
2018-12-19T23:59:54.037Z,98504.83
